Kirkwood Voorhees, New Jersey
Current Conditions -  °F | °C
As of 9:54 PM on Saturday 25 Oct 2014 (Local Time) from KVAY Reporting Station
Broken Clouds Broken Clouds  
Wind Chill: 60°   Ceiling: 6500
Heat Index: 60°   Visibility: 10mi
Dew Point: 43°   Wind: 7mph
Humidity: 53%   Direction: 220°SW
Pressure: 29.67"   Gusts: NA
Location:  39.8445°N, 74.9532°W
Report Text: KVAY 260154Z AUTO 22006KT 10SM BKN065 16/06 A2967 RMK AO2 SLP045 T01560061
Loading
Personal Weather Stations






























Interactive Weather Map
Tropical Storm Tracking
New forecast layout! Learn more

10-Day Weather Forecast

Advertisements
Track Severe Weather on mobile